createdAt,value
2023-03-06T00:00:42.863Z,93.40
2023-03-06T00:03:09.658Z,93.50
2023-03-06T00:05:36.587Z,93.30
2023-03-06T00:08:03.584Z,93.50
2023-03-06T00:10:32.547Z,93.60
2023-03-06T00:13:05.377Z,93.30
2023-03-06T00:15:32.316Z,93.60
2023-03-06T00:17:59.301Z,93.40
2023-03-06T00:20:26.913Z,93.40
2023-03-06T00:22:56.051Z,93.40
2023-03-06T00:25:22.899Z,93.60
2023-03-06T00:27:50.524Z,93.60
2023-03-06T00:30:22.988Z,93.80
2023-03-06T00:32:50.490Z,93.80
2023-03-06T00:35:17.399Z,93.50
2023-03-06T00:37:44.789Z,93.60
2023-03-06T00:40:19.160Z,93.60
2023-03-06T00:42:46.732Z,93.80
2023-03-06T00:45:13.917Z,93.90
2023-03-06T00:47:41.088Z,93.80
2023-03-06T00:50:10.673Z,93.90
2023-03-06T00:52:37.554Z,94.00
2023-03-06T00:55:06.046Z,94.10
2023-03-06T00:57:32.834Z,94.00
2023-03-06T00:59:59.714Z,94.50
2023-03-06T01:02:26.575Z,94.20
2023-03-06T01:04:53.377Z,94.20
2023-03-06T01:07:20.121Z,94.30
2023-03-06T01:09:46.961Z,94.30
2023-03-06T01:12:13.736Z,94.30
2023-03-06T01:14:40.486Z,94.50
2023-03-06T01:17:07.733Z,94.50
2023-03-06T01:19:34.481Z,94.60
2023-03-06T01:22:01.296Z,94.70
2023-03-06T01:24:28.614Z,94.90
2023-03-06T01:26:55.435Z,94.90
2023-03-06T01:29:22.289Z,95.00
2023-03-06T01:31:49.090Z,94.90
2023-03-06T01:34:15.885Z,95.00
2023-03-06T01:36:42.664Z,94.90
2023-03-06T01:39:09.815Z,95.00
2023-03-06T01:41:36.740Z,94.90
2023-03-06T01:44:03.771Z,94.90
2023-03-06T01:46:38.787Z,94.90
2023-03-06T01:49:18.040Z,95.00
2023-03-06T01:52:11.859Z,95.00
2023-03-06T01:54:46.877Z,95.00
2023-03-06T01:57:26.497Z,94.90
2023-03-06T02:00:00.484Z,94.90
2023-03-06T02:02:27.539Z,94.90
2023-03-06T02:04:54.379Z,95.00
2023-03-06T02:07:21.822Z,94.80
2023-03-06T02:09:48.569Z,94.90
2023-03-06T02:12:19.030Z,94.80
2023-03-06T02:14:46.598Z,94.90
2023-03-06T02:17:15.458Z,95.00
2023-03-06T02:19:45.404Z,94.90
2023-03-06T02:22:12.301Z,95.00
2023-03-06T02:24:45.299Z,95.00
2023-03-06T02:27:14.466Z,95.00
2023-03-06T02:29:41.890Z,95.10
2023-03-06T02:32:08.835Z,95.10
2023-03-06T02:34:38.655Z,95.30
2023-03-06T02:37:11.569Z,95.30
2023-03-06T02:39:42.880Z,95.20
2023-03-06T02:42:09.994Z,95.30
2023-03-06T02:44:37.446Z,95.40
2023-03-06T02:47:04.379Z,95.50
2023-03-06T02:49:31.207Z,95.40
2023-03-06T02:51:57.943Z,95.60
2023-03-06T02:54:24.709Z,95.60
2023-03-06T02:56:51.460Z,95.50
2023-03-06T02:59:18.202Z,95.40
2023-03-06T03:01:45.008Z,95.50
2023-03-06T03:04:11.851Z,95.40
2023-03-06T03:06:38.691Z,95.50
2023-03-06T03:09:05.474Z,95.50
2023-03-06T03:11:32.240Z,95.60
2023-03-06T03:13:59.183Z,95.60
2023-03-06T03:16:26.056Z,95.60
2023-03-06T03:18:52.873Z,95.70
2023-03-06T03:21:19.629Z,95.50
2023-03-06T03:23:46.489Z,95.60
2023-03-06T03:26:20.232Z,95.50
2023-03-06T03:28:47.222Z,95.40
2023-03-06T03:31:14.167Z,95.30
2023-03-06T03:33:41.736Z,95.40
2023-03-06T03:36:09.362Z,95.30
2023-03-06T03:38:36.728Z,95.30
2023-03-06T03:41:03.877Z,95.40
2023-03-06T03:43:31.169Z,95.40
2023-03-06T03:45:57.983Z,95.20
2023-03-06T03:48:24.795Z,95.20
2023-03-06T03:50:51.802Z,95.10
2023-03-06T03:53:18.599Z,95.10
2023-03-06T03:55:47.405Z,94.90
2023-03-06T03:58:14.252Z,95.10
2023-03-06T04:00:41.113Z,95.10
2023-03-06T04:03:08.026Z,95.00
2023-03-06T04:05:35.041Z,95.20
2023-03-06T04:08:03.336Z,95.20
2023-03-06T04:10:30.353Z,95.30
2023-03-06T04:12:57.384Z,95.60
2023-03-06T04:15:24.186Z,95.10
2023-03-06T04:17:51.129Z,95.20
2023-03-06T04:20:18.135Z,95.20
2023-03-06T04:22:45.071Z,95.10
2023-03-06T04:25:12.004Z,95.10
2023-03-06T04:27:38.838Z,95.10
2023-03-06T04:30:06.854Z,95.10
2023-03-06T04:32:33.708Z,95.10
2023-03-06T04:35:00.547Z,95.30
2023-03-06T04:37:27.389Z,95.10
2023-03-06T04:39:54.454Z,95.10
2023-03-06T04:42:21.334Z,95.40
2023-03-06T04:44:48.115Z,95.10
2023-03-06T04:47:14.904Z,95.00
2023-03-06T04:49:41.753Z,95.10
2023-03-06T04:52:08.914Z,95.00
2023-03-06T04:54:35.772Z,95.00
2023-03-06T04:57:02.598Z,95.10
2023-03-06T04:59:29.440Z,95.30
2023-03-06T05:01:56.372Z,95.10
2023-03-06T05:04:23.208Z,95.10
2023-03-06T05:06:50.063Z,95.20
2023-03-06T05:09:16.905Z,95.00
2023-03-06T05:11:43.689Z,95.40
2023-03-06T05:14:10.488Z,95.20
2023-03-06T05:16:37.361Z,95.10
2023-03-06T05:19:04.203Z,95.30
2023-03-06T05:21:30.947Z,95.20
2023-03-06T05:23:57.782Z,95.00
2023-03-06T05:26:24.694Z,95.00
2023-03-06T05:28:51.552Z,95.00
2023-03-06T05:31:18.419Z,95.20
2023-03-06T05:33:45.218Z,94.80
2023-03-06T05:36:12.219Z,94.90
2023-03-06T05:38:39.048Z,94.80
2023-03-06T05:41:05.826Z,94.80
2023-03-06T05:43:32.627Z,94.80
2023-03-06T05:46:04.726Z,95.00
2023-03-06T05:48:32.484Z,94.90
2023-03-06T05:51:01.081Z,94.90
2023-03-06T05:53:29.334Z,94.90
2023-03-06T05:56:01.348Z,94.90
2023-03-06T05:58:28.946Z,95.10
2023-03-06T06:00:56.314Z,95.20
2023-03-06T06:03:23.387Z,95.30
2023-03-06T06:05:51.245Z,95.20
2023-03-06T06:08:18.248Z,95.10
2023-03-06T06:10:45.032Z,95.10
2023-03-06T06:13:11.862Z,95.00
2023-03-06T06:15:39.127Z,95.00
2023-03-06T06:18:05.967Z,95.00
2023-03-06T06:20:33.054Z,95.10
2023-03-06T06:23:00.013Z,95.10
2023-03-06T06:25:26.796Z,95.00
2023-03-06T06:27:55.969Z,95.10
2023-03-06T06:30:23.479Z,95.30
2023-03-06T06:32:50.684Z,95.20
2023-03-06T06:35:17.582Z,95.20
2023-03-06T06:37:44.328Z,95.30
2023-03-06T06:40:11.694Z,95.40
2023-03-06T06:42:40.220Z,95.30
2023-03-06T06:45:08.703Z,95.40
2023-03-06T06:47:38.349Z,95.30
2023-03-06T06:50:05.809Z,95.40
2023-03-06T06:52:32.575Z,95.40
2023-03-06T06:54:59.355Z,95.80
2023-03-06T06:57:26.253Z,95.50
2023-03-06T06:59:54.202Z,95.60
2023-03-06T07:02:21.349Z,95.60
2023-03-06T07:05:02.356Z,95.70
2023-03-06T07:07:30.025Z,95.70
2023-03-06T07:09:56.969Z,95.80
2023-03-06T07:12:23.856Z,95.80
2023-03-06T07:14:50.715Z,95.90
2023-03-06T07:17:17.438Z,96.10
2023-03-06T07:19:44.365Z,96.10
2023-03-06T07:22:11.169Z,96.10
2023-03-06T07:24:38.000Z,96.20
2023-03-06T07:27:04.938Z,96.20
2023-03-06T07:29:34.005Z,96.30
2023-03-06T07:32:00.938Z,96.20
2023-03-06T07:34:27.780Z,96.40
2023-03-06T07:36:54.604Z,96.40
2023-03-06T07:39:21.511Z,96.50
2023-03-06T07:41:48.284Z,96.40
2023-03-06T07:44:15.041Z,96.30
2023-03-06T07:46:41.882Z,96.30
2023-03-06T07:49:08.652Z,96.30
2023-03-06T07:51:35.451Z,96.30
2023-03-06T07:54:02.277Z,96.30
2023-03-06T07:56:29.023Z,96.50
2023-03-06T07:58:57.040Z,96.60
2023-03-06T08:01:24.349Z,96.70
2023-03-06T08:03:51.587Z,96.70
2023-03-06T08:06:27.280Z,96.80
2023-03-06T08:08:55.778Z,96.80
2023-03-06T08:11:25.071Z,96.80
2023-03-06T08:13:53.014Z,96.90
2023-03-06T08:16:21.450Z,97.00
2023-03-06T08:18:48.730Z,97.00
2023-03-06T08:21:18.034Z,96.90
2023-03-06T08:23:46.449Z,96.90
2023-03-06T08:26:19.418Z,97.10
2023-03-06T08:28:47.347Z,96.90
2023-03-06T08:31:24.530Z,97.00
2023-03-06T08:33:51.545Z,97.00
2023-03-06T08:36:18.506Z,96.80
2023-03-06T08:38:45.265Z,96.90
2023-03-06T08:41:12.232Z,97.00
2023-03-06T08:43:39.269Z,96.90
2023-03-06T08:46:06.861Z,97.10
2023-03-06T08:48:33.697Z,96.90
2023-03-06T08:51:00.578Z,96.90
2023-03-06T08:53:41.557Z,96.80
2023-03-06T08:56:22.674Z,96.70
2023-03-06T08:58:50.423Z,96.70
2023-03-06T09:01:19.872Z,96.60
2023-03-06T09:03:46.840Z,96.70
2023-03-06T09:06:13.918Z,96.60
2023-03-06T09:08:43.255Z,96.50
2023-03-06T09:11:11.698Z,96.40
2023-03-06T09:13:38.629Z,96.40
2023-03-06T09:16:06.420Z,96.40
2023-03-06T09:18:33.234Z,96.50
2023-03-06T09:21:00.107Z,96.60
2023-03-06T09:23:26.936Z,96.70
2023-03-06T09:25:55.428Z,96.80
2023-03-06T09:28:22.786Z,96.40
2023-03-06T09:30:50.004Z,96.30
2023-03-06T09:33:17.330Z,96.20
2023-03-06T09:35:52.010Z,96.20
2023-03-06T09:38:19.890Z,96.10
2023-03-06T09:41:01.884Z,96.10
2023-03-06T09:43:38.101Z,95.90
2023-03-06T09:46:16.990Z,96.00
2023-03-06T09:48:55.119Z,96.00
2023-03-06T09:51:33.686Z,96.00
2023-03-06T09:54:15.320Z,95.70
2023-03-06T09:56:50.376Z,95.60
2023-03-06T09:59:21.002Z,95.70
2023-03-06T10:02:02.839Z,95.80
2023-03-06T10:04:29.719Z,96.20
2023-03-06T10:07:15.697Z,96.00
2023-03-06T10:09:52.237Z,96.00
2023-03-06T10:12:34.066Z,95.70
2023-03-06T10:15:22.085Z,95.90
2023-03-06T10:17:49.060Z,95.80
2023-03-06T10:20:19.941Z,95.70
2023-03-06T10:23:03.112Z,95.30
2023-03-06T10:25:48.400Z,95.40
2023-03-06T10:28:19.266Z,95.50
2023-03-06T10:31:11.166Z,95.80
2023-03-06T10:33:58.346Z,95.90
2023-03-06T10:36:27.560Z,96.30
2023-03-06T10:38:56.134Z,96.20
2023-03-06T10:41:24.837Z,96.20
2023-03-06T10:44:11.863Z,96.30
2023-03-06T10:46:47.324Z,96.30
2023-03-06T10:49:36.647Z,96.30
2023-03-06T10:52:19.193Z,96.70
2023-03-06T10:54:46.034Z,96.70
2023-03-06T10:57:31.706Z,96.70
2023-03-06T11:00:36.000Z,96.50
2023-03-06T11:03:07.517Z,96.40
2023-03-06T11:05:34.417Z,96.30
2023-03-06T11:08:01.677Z,96.20
2023-03-06T11:10:30.875Z,95.90
2023-03-06T11:13:07.708Z,96.10
2023-03-06T11:15:34.949Z,96.20
2023-03-06T11:18:31.103Z,96.60
2023-03-06T11:20:58.034Z,96.70
2023-03-06T11:23:46.796Z,96.70
2023-03-06T11:26:16.692Z,97.30
2023-03-06T11:28:58.051Z,97.00
2023-03-06T11:31:31.697Z,96.80
2023-03-06T11:34:04.506Z,97.20
2023-03-06T11:36:39.781Z,97.20
2023-03-06T11:39:37.310Z,97.20
2023-03-06T11:42:26.545Z,97.40
2023-03-06T11:45:37.372Z,97.70
2023-03-06T11:48:14.782Z,97.50
2023-03-06T11:50:48.088Z,97.50
2023-03-06T11:53:38.909Z,97.40
2023-03-06T11:56:08.484Z,97.30
2023-03-06T11:58:41.062Z,97.60
2023-03-06T12:01:16.926Z,97.70
2023-03-06T12:04:23.365Z,97.80
2023-03-06T12:06:58.910Z,97.60
2023-03-06T12:09:44.376Z,97.60
2023-03-06T12:12:48.642Z,97.70
2023-03-06T12:15:34.076Z,97.80
2023-03-06T12:18:28.997Z,97.80
2023-03-06T12:21:31.128Z,98.20
2023-03-06T12:24:25.868Z,98.40
2023-03-06T12:27:19.369Z,98.50
2023-03-06T12:30:03.306Z,98.60
2023-03-06T12:32:53.392Z,98.50
2023-03-06T12:35:38.398Z,98.50
2023-03-06T12:38:17.135Z,98.50
2023-03-06T12:41:13.177Z,98.40
2023-03-06T12:43:59.800Z,98.60
2023-03-06T12:46:28.443Z,98.70
2023-03-06T12:49:31.831Z,98.70
2023-03-06T12:52:01.098Z,98.90
2023-03-06T12:54:31.433Z,99.10
2023-03-06T12:57:00.578Z,99.20
2023-03-06T12:59:44.335Z,99.20
2023-03-06T13:02:37.436Z,99.30
2023-03-06T13:05:22.908Z,99.40
2023-03-06T13:08:19.263Z,99.50
2023-03-06T13:11:06.281Z,99.80
2023-03-06T13:13:41.465Z,99.50
2023-03-06T13:16:30.140Z,99.60
2023-03-06T13:19:01.539Z,99.70
2023-03-06T13:22:00.596Z,99.90
2023-03-06T13:24:34.669Z,99.80
2023-03-06T13:27:10.039Z,99.70
2023-03-06T13:29:37.372Z,99.90
2023-03-06T13:32:04.251Z,99.90
2023-03-06T13:34:41.520Z,99.90
2023-03-06T13:37:14.176Z,99.90
2023-03-06T13:40:13.549Z,99.90
2023-03-06T13:42:43.209Z,99.90
2023-03-06T13:45:22.780Z,99.90
2023-03-06T13:50:58.316Z,99.90
2023-03-06T13:54:00.817Z,99.90
2023-03-06T13:56:53.319Z,99.90
2023-03-06T13:59:45.059Z,99.90
2023-03-06T14:02:41.637Z,99.90
2023-03-06T14:05:15.425Z,99.90
2023-03-06T14:07:48.135Z,99.90
2023-03-06T14:10:20.035Z,99.90
2023-03-06T14:12:49.645Z,99.90
2023-03-06T14:15:23.804Z,99.90
2023-03-06T14:18:01.165Z,99.90
2023-03-06T14:20:45.015Z,99.90
2023-03-06T14:23:32.431Z,99.90
2023-03-06T14:26:15.050Z,99.90
2023-03-06T14:28:52.097Z,99.90
2023-03-06T14:31:21.294Z,99.90
2023-03-06T14:33:58.590Z,99.90
2023-03-06T14:36:42.088Z,99.90
2023-03-06T14:39:20.817Z,99.90
2023-03-06T14:41:47.901Z,99.90
2023-03-06T14:44:16.798Z,99.90
2023-03-06T14:46:44.987Z,99.90
2023-03-06T14:49:15.084Z,99.90
2023-03-06T14:51:45.871Z,99.90
2023-03-06T14:54:22.326Z,99.90
2023-03-06T14:56:53.090Z,99.90
2023-03-06T14:59:25.941Z,99.90
2023-03-06T15:02:02.754Z,99.90
2023-03-06T15:04:44.337Z,99.90
2023-03-06T15:07:25.416Z,99.90
2023-03-06T15:09:53.985Z,99.90
2023-03-06T15:12:20.895Z,99.90
2023-03-06T15:14:56.708Z,99.90
2023-03-06T15:17:38.348Z,99.90
2023-03-06T15:20:08.822Z,99.90
2023-03-06T15:22:42.836Z,99.90
2023-03-06T15:25:31.855Z,99.90
2023-03-06T15:28:23.888Z,99.90
2023-03-06T15:31:18.895Z,99.90
2023-03-06T15:34:05.848Z,99.90
2023-03-06T15:36:35.730Z,99.90
2023-03-06T15:39:22.808Z,99.90
2023-03-06T15:42:18.257Z,99.90
2023-03-06T15:44:50.704Z,99.90
2023-03-06T15:47:17.989Z,99.90
2023-03-06T15:49:44.823Z,99.90
2023-03-06T15:52:11.999Z,99.90
2023-03-06T15:54:38.821Z,99.90
2023-03-06T15:57:07.727Z,99.90
2023-03-06T15:59:42.675Z,99.90
2023-03-06T16:02:19.263Z,99.90
2023-03-06T16:04:46.630Z,99.90
2023-03-06T16:07:14.276Z,99.90
2023-03-06T16:09:42.379Z,99.90
2023-03-06T16:12:20.645Z,99.90
2023-03-06T16:14:48.541Z,99.90
2023-03-06T16:17:15.997Z,99.90
2023-03-06T16:19:43.430Z,99.90
2023-03-06T16:22:10.744Z,99.90
2023-03-06T16:24:37.656Z,99.90
2023-03-06T16:27:04.933Z,99.90
2023-03-06T16:29:31.834Z,99.90
2023-03-06T16:32:01.584Z,99.90
2023-03-06T16:34:28.518Z,99.90
2023-03-06T16:36:55.332Z,99.90
2023-03-06T16:39:23.871Z,99.90
2023-03-06T16:41:50.846Z,99.90
2023-03-06T16:44:18.072Z,99.90
2023-03-06T16:46:47.500Z,99.90
2023-03-06T16:49:25.006Z,99.90
2023-03-06T16:51:53.097Z,99.90
2023-03-06T16:54:21.856Z,99.90
2023-03-06T16:56:48.897Z,99.90
2023-03-06T16:59:15.856Z,99.90
2023-03-06T17:01:43.414Z,99.90
2023-03-06T17:04:10.965Z,99.90
2023-03-06T17:06:38.474Z,99.90
2023-03-06T17:09:05.689Z,99.90
2023-03-06T17:11:32.582Z,99.90
2023-03-06T17:13:59.420Z,99.90
2023-03-06T17:16:26.214Z,99.90
2023-03-06T17:18:54.676Z,99.90
2023-03-06T17:21:21.497Z,99.90
2023-03-06T17:23:48.346Z,99.90
2023-03-06T17:26:20.435Z,99.90
2023-03-06T17:28:47.939Z,99.90
2023-03-06T17:31:26.673Z,99.90
2023-03-06T17:33:59.903Z,99.90
2023-03-06T17:36:30.919Z,99.90
2023-03-06T17:38:59.714Z,99.90
2023-03-06T17:41:26.656Z,99.90
2023-03-06T17:43:55.515Z,99.90
2023-03-06T17:46:22.535Z,99.90
2023-03-06T17:48:49.295Z,99.90
2023-03-06T17:51:16.090Z,99.90
2023-03-06T17:53:42.852Z,99.90
2023-03-06T17:56:13.079Z,99.90
2023-03-06T17:58:39.976Z,99.90
2023-03-06T18:01:16.084Z,99.90
2023-03-06T18:03:45.531Z,99.90
2023-03-06T18:06:12.575Z,99.90
2023-03-06T18:08:40.948Z,99.90
2023-03-06T18:11:12.021Z,99.90
2023-03-06T18:13:41.792Z,99.90
2023-03-06T18:16:10.311Z,99.90
2023-03-06T18:18:37.079Z,99.90
2023-03-06T18:21:08.114Z,99.90
2023-03-06T18:23:36.180Z,99.90
2023-03-06T18:26:11.643Z,99.90
2023-03-06T18:28:42.333Z,99.90
2023-03-06T18:31:26.707Z,99.90
2023-03-06T18:33:58.406Z,99.90
2023-03-06T18:36:28.205Z,99.90
2023-03-06T18:38:55.732Z,99.90
2023-03-06T18:41:23.255Z,99.90
2023-03-06T18:43:54.463Z,99.90
2023-03-06T18:46:22.333Z,99.90
2023-03-06T18:48:49.163Z,99.90
2023-03-06T18:51:16.453Z,99.90
2023-03-06T18:53:44.156Z,99.90
2023-03-06T18:56:16.897Z,99.90
2023-03-06T18:58:46.668Z,99.90
2023-03-06T19:01:13.581Z,99.90
2023-03-06T19:03:41.444Z,99.90
2023-03-06T19:06:11.316Z,99.90
2023-03-06T19:08:39.114Z,99.90
2023-03-06T19:11:14.804Z,99.90
2023-03-06T19:13:42.225Z,99.90
2023-03-06T19:16:16.118Z,99.90
2023-03-06T19:18:42.888Z,99.90
2023-03-06T19:21:12.136Z,99.90
2023-03-06T19:23:39.607Z,99.90
2023-03-06T19:26:07.587Z,99.90
2023-03-06T19:28:36.590Z,99.90
2023-03-06T19:31:21.277Z,99.90
2023-03-06T19:33:49.552Z,99.90
2023-03-06T19:36:18.487Z,99.90
2023-03-06T19:38:46.218Z,99.90
2023-03-06T19:41:13.874Z,99.90
2023-03-06T19:43:42.383Z,99.90
2023-03-06T19:46:15.354Z,99.90
2023-03-06T19:48:42.631Z,99.90
2023-03-06T19:51:10.335Z,99.90
2023-03-06T19:53:38.869Z,99.90
2023-03-06T19:56:12.431Z,99.90
2023-03-06T19:58:40.684Z,99.90
2023-03-06T20:01:13.740Z,99.90
2023-03-06T20:03:40.929Z,99.90
2023-03-06T20:06:11.982Z,99.90
2023-03-06T20:08:38.779Z,99.90
2023-03-06T20:11:05.610Z,99.90
2023-03-06T20:13:32.613Z,99.90
2023-03-06T20:16:03.149Z,99.90
2023-03-06T20:18:30.001Z,99.90
2023-03-06T20:21:01.133Z,99.90
2023-03-06T20:23:28.684Z,99.90
2023-03-06T20:25:55.652Z,99.90
2023-03-06T20:28:23.404Z,99.90
2023-03-06T20:30:50.301Z,99.90
2023-03-06T20:33:17.355Z,99.90
2023-03-06T20:35:44.932Z,99.90
2023-03-06T20:38:12.024Z,99.90
2023-03-06T20:40:41.003Z,99.90
2023-03-06T20:43:08.235Z,99.90
2023-03-06T20:45:35.809Z,99.90
2023-03-06T20:48:07.046Z,99.90
2023-03-06T20:50:33.838Z,99.90
2023-03-06T20:53:00.624Z,99.90
2023-03-06T20:55:27.408Z,99.90
2023-03-06T20:57:54.331Z,99.90
2023-03-06T21:00:21.386Z,99.90
2023-03-06T21:02:48.211Z,99.90
2023-03-06T21:05:15.062Z,99.90
2023-03-06T21:07:41.912Z,99.90
2023-03-06T21:10:09.565Z,99.90
2023-03-06T21:12:36.340Z,99.90
2023-03-06T21:15:03.759Z,99.90
2023-03-06T21:17:30.738Z,99.90
2023-03-06T21:19:58.417Z,99.90
2023-03-06T21:22:25.493Z,99.90
2023-03-06T21:24:52.314Z,99.90
2023-03-06T21:27:19.208Z,99.90
2023-03-06T21:29:46.472Z,99.90
2023-03-06T21:32:13.408Z,99.90
2023-03-06T21:34:40.247Z,99.90
2023-03-06T21:37:07.088Z,99.90
2023-03-06T21:39:33.950Z,99.90
2023-03-06T21:42:00.717Z,99.90
2023-03-06T21:44:27.577Z,99.90
2023-03-06T21:46:54.381Z,99.90
2023-03-06T21:49:26.007Z,99.90
2023-03-06T21:51:53.797Z,99.90
2023-03-06T21:54:21.223Z,99.90
2023-03-06T21:56:48.016Z,99.90
2023-03-06T21:59:14.883Z,99.90
2023-03-06T22:01:42.771Z,99.90
2023-03-06T22:04:09.743Z,99.90
2023-03-06T22:06:38.371Z,99.90
2023-03-06T22:09:05.311Z,99.90
2023-03-06T22:11:36.820Z,99.90
2023-03-06T22:14:04.903Z,99.90
2023-03-06T22:16:31.975Z,99.90
2023-03-06T22:18:59.424Z,99.90
2023-03-06T22:21:26.243Z,99.90
2023-03-06T22:23:57.242Z,99.90
2023-03-06T22:26:24.275Z,99.90
2023-03-06T22:28:51.017Z,99.90
2023-03-06T22:31:26.786Z,99.90
2023-03-06T22:33:55.178Z,99.90
2023-03-06T22:36:23.184Z,99.90
2023-03-06T22:38:55.029Z,99.90
2023-03-06T22:41:22.063Z,99.90
2023-03-06T22:43:48.914Z,99.90
2023-03-06T22:46:17.773Z,99.90
2023-03-06T22:48:45.235Z,99.90
2023-03-06T22:51:17.859Z,99.90
2023-03-06T22:53:45.563Z,99.90
2023-03-06T22:56:18.135Z,99.90
2023-03-06T22:58:45.058Z,99.90
2023-03-06T23:01:21.789Z,99.90
2023-03-06T23:03:54.038Z,99.90
2023-03-06T23:06:35.683Z,99.90
2023-03-06T23:09:09.224Z,99.90
2023-03-06T23:11:36.018Z,99.90
2023-03-06T23:14:03.442Z,99.90
2023-03-06T23:16:30.196Z,99.90
2023-03-06T23:18:57.137Z,99.90
2023-03-06T23:21:24.442Z,99.90
2023-03-06T23:23:53.704Z,99.90
2023-03-06T23:26:23.540Z,99.90
2023-03-06T23:28:51.146Z,99.90
2023-03-06T23:31:20.848Z,99.90
2023-03-06T23:33:48.109Z,99.90
2023-03-06T23:36:17.093Z,99.90
2023-03-06T23:38:44.911Z,99.90
2023-03-06T23:41:17.063Z,99.90
2023-03-06T23:43:45.565Z,99.90
2023-03-06T23:46:13.511Z,99.90
2023-03-06T23:48:42.279Z,99.90
2023-03-06T23:51:17.833Z,99.90
2023-03-06T23:53:46.148Z,99.90
2023-03-06T23:56:13.878Z,99.90
2023-03-06T23:58:40.922Z,99.90
